Time,TemperatureF,DewpointF,PressureIn,WindDirection,WindDirectionDegrees,WindSpeedMPH,WindSpeedGustMPH,Humidity,HourlyPrecipIn,Conditions,Clouds,dailyrainin,SoftwareType,DateUTC
2013-04-27 00:00:00,57.8,48.8,30.23,NE,45,1.0,-999.0,72,0.00,,,0.00,Wunderground v.1.15,2013-04-27 07:00:00,
2013-04-27 00:05:00,57.8,48.8,30.23,NE,45,1.0,-999.0,72,0.00,,,0.00,Wunderground v.1.15,2013-04-27 07:05:00,
2013-04-27 00:10:00,57.8,48.8,30.23,NE,45,1.0,-999.0,72,0.00,,,0.00,Wunderground v.1.15,2013-04-27 07:10:00,
2013-04-27 00:15:00,57.3,48.7,30.24,NE,45,1.0,-999.0,73,0.00,,,0.00,Wunderground v.1.15,2013-04-27 07:15:00,
2013-04-27 00:20:00,57.3,48.7,30.24,NE,45,1.0,-999.0,73,0.00,,,0.00,Wunderground v.1.15,2013-04-27 07:20:00,
2013-04-27 00:25:00,57.0,48.1,30.23,NE,45,1.0,-999.0,72,0.00,,,0.00,Wunderground v.1.15,2013-04-27 07:25:00,
2013-04-27 00:30:00,57.0,48.1,30.23,NE,45,1.0,-999.0,72,0.00,,,0.00,Wunderground v.1.15,2013-04-27 07:30:00,
2013-04-27 00:35:00,56.7,48.1,30.24,North,0,1.0,-999.0,73,0.00,,,0.00,Wunderground v.1.15,2013-04-27 07:35:00,
2013-04-27 00:40:00,56.7,48.1,30.24,North,0,1.0,-999.0,73,0.00,,,0.00,Wunderground v.1.15,2013-04-27 07:40:00,
2013-04-27 00:45:00,56.2,47.7,30.23,North,0,1.0,-999.0,73,0.00,,,0.00,Wunderground v.1.15,2013-04-27 07:45:00,
2013-04-27 00:50:00,56.2,47.7,30.23,North,0,1.0,-999.0,73,0.00,,,0.00,Wunderground v.1.15,2013-04-27 07:50:00,
2013-04-27 00:55:00,56.2,46.9,30.23,NW,315,1.0,-999.0,71,0.00,,,0.00,Wunderground v.1.15,2013-04-27 07:55:00,
2013-04-27 01:00:00,56.2,46.9,30.23,NW,315,1.0,-999.0,71,0.00,,,0.00,Wunderground v.1.15,2013-04-27 08:00:00,
2013-04-27 01:05:00,56.6,45.8,30.23,NW,315,0.0,-999.0,67,0.00,,,0.00,Wunderground v.1.15,2013-04-27 08:05:00,
2013-04-27 01:10:00,56.6,45.8,30.23,NW,315,0.0,-999.0,67,0.00,,,0.00,Wunderground v.1.15,2013-04-27 08:10:00,
2013-04-27 01:15:00,57.1,45.8,30.23,NW,315,0.0,-999.0,66,0.00,,,0.00,Wunderground v.1.15,2013-04-27 08:15:00,
2013-04-27 01:20:00,57.1,45.8,30.23,NW,315,0.0,-999.0,66,0.00,,,0.00,Wunderground v.1.15,2013-04-27 08:20:00,
2013-04-27 01:25:00,57.8,46.5,30.23,NW,315,0.0,-999.0,66,0.00,,,0.00,Wunderground v.1.15,2013-04-27 08:25:00,
2013-04-27 01:30:00,57.8,46.5,30.23,NW,315,0.0,-999.0,66,0.00,,,0.00,Wunderground v.1.15,2013-04-27 08:30:00,
2013-04-27 01:35:00,56.8,45.2,30.23,NW,315,0.0,-999.0,65,0.00,,,0.00,Wunderground v.1.15,2013-04-27 08:35:00,
2013-04-27 01:40:00,56.8,45.2,30.23,NW,315,0.0,-999.0,65,0.00,,,0.00,Wunderground v.1.15,2013-04-27 08:40:00,
2013-04-27 01:45:00,56.5,45.7,30.23,NW,315,0.0,-999.0,67,0.00,,,0.00,Wunderground v.1.15,2013-04-27 08:45:00,
2013-04-27 01:50:00,56.5,45.7,30.23,NW,315,0.0,-999.0,67,0.00,,,0.00,Wunderground v.1.15,2013-04-27 08:50:00,
2013-04-27 01:55:00,56.1,44.5,30.22,NW,315,1.0,-999.0,65,0.00,,,0.00,Wunderground v.1.15,2013-04-27 08:55:00,
2013-04-27 02:00:00,56.1,44.5,30.22,NW,315,1.0,-999.0,65,0.00,,,0.00,Wunderground v.1.15,2013-04-27 09:00:00,
2013-04-27 02:05:00,56.1,44.5,30.22,NW,315,1.0,-999.0,65,0.00,,,0.00,Wunderground v.1.15,2013-04-27 09:05:00,
2013-04-27 02:10:00,56.1,44.5,30.22,NW,315,1.0,-999.0,65,0.00,,,0.00,Wunderground v.1.15,2013-04-27 09:10:00,
2013-04-27 02:15:00,56.0,43.2,30.22,NW,315,1.0,-999.0,62,0.00,,,0.00,Wunderground v.1.15,2013-04-27 09:15:00,
2013-04-27 02:20:00,56.0,43.2,30.22,NW,315,1.0,-999.0,62,0.00,,,0.00,Wunderground v.1.15,2013-04-27 09:20:00,
2013-04-27 02:25:00,56.9,42.3,30.22,NW,315,0.0,-999.0,58,0.00,,,0.00,Wunderground v.1.15,2013-04-27 09:25:00,
2013-04-27 02:30:00,56.9,42.3,30.22,NW,315,0.0,-999.0,58,0.00,,,0.00,Wunderground v.1.15,2013-04-27 09:30:00,
2013-04-27 02:35:00,57.3,42.6,30.22,NW,315,1.0,-999.0,58,0.00,,,0.00,Wunderground v.1.15,2013-04-27 09:35:00,
2013-04-27 02:40:00,57.3,42.6,30.22,NW,315,1.0,-999.0,58,0.00,,,0.00,Wunderground v.1.15,2013-04-27 09:40:00,
2013-04-27 02:45:00,57.2,42.1,30.22,NW,315,0.0,-999.0,57,0.00,,,0.00,Wunderground v.1.15,2013-04-27 09:45:00,
2013-04-27 02:50:00,57.2,42.1,30.22,NW,315,0.0,-999.0,57,0.00,,,0.00,Wunderground v.1.15,2013-04-27 09:50:00,
2013-04-27 02:55:00,57.3,41.3,30.22,NW,315,0.0,-999.0,55,0.00,,,0.00,Wunderground v.1.15,2013-04-27 09:55:00,
2013-04-27 03:00:00,57.3,41.3,30.22,NW,315,0.0,-999.0,55,0.00,,,0.00,Wunderground v.1.15,2013-04-27 10:00:00,
2013-04-27 03:05:00,57.8,42.2,30.22,N/A,-737280,0.0,-999.0,56,0.00,,,0.00,Wunderground v.1.15,2013-04-27 10:05:00,
2013-04-27 03:10:00,57.8,42.2,30.22,N/A,-737280,0.0,-999.0,56,0.00,,,0.00,Wunderground v.1.15,2013-04-27 10:10:00,
2013-04-27 03:15:00,57.9,42.3,30.22,N/A,-737280,0.0,-999.0,56,0.00,,,0.00,Wunderground v.1.15,2013-04-27 10:15:00,
2013-04-27 03:20:00,57.9,42.3,30.22,N/A,-737280,0.0,-999.0,56,0.00,,,0.00,Wunderground v.1.15,2013-04-27 10:20:00,
2013-04-27 03:25:00,57.6,42.9,30.22,NW,315,0.0,-999.0,58,0.00,,,0.00,Wunderground v.1.15,2013-04-27 10:25:00,
2013-04-27 03:30:00,57.6,42.9,30.22,NW,315,0.0,-999.0,58,0.00,,,0.00,Wunderground v.1.15,2013-04-27 10:30:00,
2013-04-27 03:35:00,56.4,43.1,30.23,NW,315,0.0,-999.0,61,0.00,,,0.00,Wunderground v.1.15,2013-04-27 10:35:00,
2013-04-27 03:40:00,56.4,43.1,30.23,NW,315,0.0,-999.0,61,0.00,,,0.00,Wunderground v.1.15,2013-04-27 10:40:00,
2013-04-27 03:45:00,55.5,43.1,30.23,NW,315,0.0,-999.0,63,0.00,,,0.00,Wunderground v.1.15,2013-04-27 10:45:00,
2013-04-27 03:50:00,55.5,43.1,30.23,NW,315,0.0,-999.0,63,0.00,,,0.00,Wunderground v.1.15,2013-04-27 10:50:00,
2013-04-27 03:55:00,55.4,43.0,30.23,N/A,-737280,0.0,-999.0,63,0.00,,,0.00,Wunderground v.1.15,2013-04-27 10:55:00,
2013-04-27 04:00:00,55.4,43.0,30.23,N/A,-737280,0.0,-999.0,63,0.00,,,0.00,Wunderground v.1.15,2013-04-27 11:00:00,
2013-04-27 04:05:00,55.4,42.6,30.23,N/A,-737280,0.0,-999.0,62,0.00,,,0.00,Wunderground v.1.15,2013-04-27 11:05:00,
2013-04-27 04:10:00,55.4,42.6,30.23,N/A,-737280,0.0,-999.0,62,0.00,,,0.00,Wunderground v.1.15,2013-04-27 11:10:00,
2013-04-27 04:15:00,55.1,41.0,30.23,NW,315,1.0,-999.0,59,0.00,,,0.00,Wunderground v.1.15,2013-04-27 11:15:00,
2013-04-27 04:20:00,55.1,41.0,30.23,NW,315,1.0,-999.0,59,0.00,,,0.00,Wunderground v.1.15,2013-04-27 11:20:00,
2013-04-27 04:25:00,55.2,41.1,30.23,NW,315,1.0,-999.0,59,0.00,,,0.00,Wunderground v.1.15,2013-04-27 11:25:00,
2013-04-27 04:30:00,55.2,41.1,30.23,NW,315,1.0,-999.0,59,0.00,,,0.00,Wunderground v.1.15,2013-04-27 11:30:00,
2013-04-27 04:35:00,55.5,41.8,30.23,NW,315,0.0,-999.0,60,0.00,,,0.00,Wunderground v.1.15,2013-04-27 11:35:00,
2013-04-27 04:40:00,55.5,41.8,30.23,NW,315,0.0,-999.0,60,0.00,,,0.00,Wunderground v.1.15,2013-04-27 11:40:00,
2013-04-27 04:45:00,55.2,42.4,30.23,NW,315,0.0,-999.0,62,0.00,,,0.00,Wunderground v.1.15,2013-04-27 11:45:00,
2013-04-27 04:50:00,55.2,42.4,30.23,NW,315,0.0,-999.0,62,0.00,,,0.00,Wunderground v.1.15,2013-04-27 11:50:00,
2013-04-27 04:55:00,54.9,42.1,30.23,NW,315,0.0,-999.0,62,0.00,,,0.00,Wunderground v.1.15,2013-04-27 11:55:00,
2013-04-27 05:00:00,54.9,42.1,30.23,NW,315,0.0,-999.0,62,0.00,,,0.00,Wunderground v.1.15,2013-04-27 12:00:00,
2013-04-27 05:05:00,54.6,43.1,30.23,NW,315,0.0,-999.0,65,0.00,,,0.00,Wunderground v.1.15,2013-04-27 12:05:00,
2013-04-27 05:10:00,54.6,43.1,30.23,NW,315,0.0,-999.0,65,0.00,,,0.00,Wunderground v.1.15,2013-04-27 12:10:00,
2013-04-27 05:15:00,54.9,42.1,30.23,NW,315,0.0,-999.0,62,0.00,,,0.00,Wunderground v.1.15,2013-04-27 12:15:00,
2013-04-27 05:20:00,54.9,42.1,30.23,NW,315,0.0,-999.0,62,0.00,,,0.00,Wunderground v.1.15,2013-04-27 12:20:00,
2013-04-27 05:25:00,55.0,42.2,30.23,NW,315,0.0,-999.0,62,0.00,,,0.00,Wunderground v.1.15,2013-04-27 12:25:00,
2013-04-27 05:30:00,55.0,42.2,30.23,NW,315,0.0,-999.0,62,0.00,,,0.00,Wunderground v.1.15,2013-04-27 12:30:00,
2013-04-27 05:35:00,54.2,42.3,30.23,NW,315,0.0,-999.0,64,0.00,,,0.00,Wunderground v.1.15,2013-04-27 12:35:00,
2013-04-27 05:40:00,54.2,42.3,30.23,NW,315,0.0,-999.0,64,0.00,,,0.00,Wunderground v.1.15,2013-04-27 12:40:00,
2013-04-27 05:45:00,54.1,41.8,30.23,NW,315,0.0,-999.0,63,0.00,,,0.00,Wunderground v.1.15,2013-04-27 12:45:00,
2013-04-27 05:50:00,54.1,41.8,30.23,NW,315,0.0,-999.0,63,0.00,,,0.00,Wunderground v.1.15,2013-04-27 12:50:00,
2013-04-27 05:55:00,54.3,42.0,30.23,NW,315,0.0,-999.0,63,0.00,,,0.00,Wunderground v.1.15,2013-04-27 12:55:00,
2013-04-27 06:00:00,54.3,42.0,30.23,NW,315,0.0,-999.0,63,0.00,,,0.00,Wunderground v.1.15,2013-04-27 13:00:00,
2013-04-27 06:05:00,53.8,41.9,30.23,NW,315,0.0,-999.0,64,0.00,,,0.00,Wunderground v.1.15,2013-04-27 13:05:00,
2013-04-27 06:10:00,53.8,41.9,30.23,NW,315,0.0,-999.0,64,0.00,,,0.00,Wunderground v.1.15,2013-04-27 13:10:00,
2013-04-27 06:15:00,53.8,41.5,30.24,NW,315,1.0,-999.0,63,0.00,,,0.00,Wunderground v.1.15,2013-04-27 13:15:00,
2013-04-27 06:20:00,53.8,41.5,30.24,NW,315,1.0,-999.0,63,0.00,,,0.00,Wunderground v.1.15,2013-04-27 13:20:00,
2013-04-27 06:32:00,53.7,41.0,30.24,NW,315,1.0,-999.0,62,0.00,,,0.00,Wunderground v.1.15,2013-04-27 13:32:00,
2013-04-27 06:40:00,54.2,40.6,30.24,NNW,327,1.0,1.0,60,0.00,,,0.00,Wunderground v.1.15,2013-04-27 13:40:00,
2013-04-27 06:50:00,54.8,40.3,30.24,NNW,327,0.0,0.0,58,0.00,,,0.00,Wunderground v.1.15,2013-04-27 13:50:00,
2013-04-27 06:55:00,55.0,40.9,30.24,NNW,327,0.0,0.0,59,0.00,,,0.00,Wunderground v.1.15,2013-04-27 13:55:00,
2013-04-27 07:00:00,55.1,41.5,30.24,NNW,327,0.0,0.0,60,0.00,,,0.00,Wunderground v.1.15,2013-04-27 14:00:00,
2013-04-27 07:09:00,54.9,41.7,30.24,NNW,327,0.0,0.0,61,0.00,,,0.00,Wunderground v.1.15,2013-04-27 14:09:00,
2013-04-27 07:14:00,54.9,42.1,30.24,NNW,327,0.0,0.0,62,0.00,,,0.00,Wunderground v.1.15,2013-04-27 14:14:00,
2013-04-27 07:20:00,55.4,42.6,30.25,NNW,327,0.0,0.0,62,0.00,,,0.00,Wunderground v.1.15,2013-04-27 14:20:00,
2013-04-27 07:30:00,55.8,42.5,30.25,NNW,327,1.0,1.0,61,0.00,,,0.00,Wunderground v.1.15,2013-04-27 14:30:00,
2013-04-27 07:40:00,56.9,43.2,30.25,NNW,327,1.0,1.0,60,0.00,,,0.00,Wunderground v.1.15,2013-04-27 14:40:00,
2013-04-27 07:45:00,57.6,42.9,30.25,NNW,327,0.0,1.0,58,0.00,,,0.00,Wunderground v.1.15,2013-04-27 14:45:00,
2013-04-27 07:55:00,58.3,44.0,30.26,NNW,327,1.0,1.0,59,0.00,,,0.00,Wunderground v.1.15,2013-04-27 14:55:00,
2013-04-27 08:00:00,58.9,44.6,30.26,NNW,327,0.0,0.0,59,0.00,,,0.00,Wunderground v.1.15,2013-04-27 15:00:00,
2013-04-27 08:05:00,60.0,43.8,30.26,NNW,338,0.0,-999.0,55,0.00,,,0.00,Wunderground v.1.15,2013-04-27 15:05:00,
2013-04-27 08:09:00,60.8,45.0,30.26,NNW,327,0.0,0.0,56,0.00,,,0.00,Wunderground v.1.15,2013-04-27 15:09:00,
2013-04-27 08:10:00,60.0,43.8,30.26,NNW,338,0.0,-999.0,55,0.00,,,0.00,Wunderground v.1.15,2013-04-27 15:10:00,
2013-04-27 08:15:00,61.9,45.5,30.26,NNW,327,0.0,0.0,55,0.00,,,0.00,Wunderground v.1.15,2013-04-27 15:15:00,
2013-04-27 08:20:00,61.9,45.5,30.26,NNW,338,0.0,-999.0,55,0.00,,,0.00,Wunderground v.1.15,2013-04-27 15:20:00,
2013-04-27 08:25:00,62.6,47.1,30.26,NNW,338,0.0,-999.0,57,0.00,,,0.00,Wunderground v.1.15,2013-04-27 15:25:00,
2013-04-27 08:30:00,62.6,47.1,30.26,NNW,338,0.0,-999.0,57,0.00,,,0.00,Wunderground v.1.15,2013-04-27 15:30:00,
2013-04-27 08:35:00,63.8,46.8,30.26,North,0,0.0,-999.0,54,0.00,,,0.00,Wunderground v.1.15,2013-04-27 15:35:00,
2013-04-27 08:40:00,63.8,46.8,30.26,North,0,0.0,-999.0,54,0.00,,,0.00,Wunderground v.1.15,2013-04-27 15:40:00,
2013-04-27 08:45:00,65.3,47.7,30.26,North,0,0.0,-999.0,53,0.00,,,0.00,Wunderground v.1.15,2013-04-27 15:45:00,
2013-04-27 08:50:00,65.3,47.7,30.26,North,0,0.0,-999.0,53,0.00,,,0.00,Wunderground v.1.15,2013-04-27 15:50:00,
2013-04-27 08:55:00,66.0,47.9,30.26,North,0,0.0,-999.0,52,0.00,,,0.00,Wunderground v.1.15,2013-04-27 15:55:00,
2013-04-27 09:00:00,66.0,47.9,30.26,North,0,0.0,-999.0,52,0.00,,,0.00,Wunderground v.1.15,2013-04-27 16:00:00,
2013-04-27 09:05:00,66.5,47.8,30.25,North,0,0.0,-999.0,51,0.00,,,0.00,Wunderground v.1.15,2013-04-27 16:05:00,
2013-04-27 09:10:00,66.5,47.8,30.25,North,0,0.0,-999.0,51,0.00,,,0.00,Wunderground v.1.15,2013-04-27 16:10:00,
2013-04-27 09:15:00,67.5,46.6,30.25,North,0,0.0,-999.0,47,0.00,,,0.00,Wunderground v.1.15,2013-04-27 16:15:00,
2013-04-27 09:20:00,67.5,46.6,30.25,North,0,0.0,-999.0,47,0.00,,,0.00,Wunderground v.1.15,2013-04-27 16:20:00,
2013-04-27 09:25:00,67.8,46.8,30.26,North,0,0.0,-999.0,47,0.00,,,0.00,Wunderground v.1.15,2013-04-27 16:25:00,
2013-04-27 09:30:00,67.8,46.8,30.26,North,0,0.0,-999.0,47,0.00,,,0.00,Wunderground v.1.15,2013-04-27 16:30:00,
2013-04-27 09:35:00,68.7,47.6,30.26,NW,315,0.0,-999.0,47,0.00,,,0.00,Wunderground v.1.15,2013-04-27 16:35:00,
2013-04-27 09:40:00,68.7,47.6,30.26,NW,315,0.0,-999.0,47,0.00,,,0.00,Wunderground v.1.15,2013-04-27 16:40:00,
2013-04-27 09:45:00,69.2,48.7,30.26,NW,315,0.0,-999.0,48,0.00,,,0.00,Wunderground v.1.15,2013-04-27 16:45:00,
2013-04-27 09:50:00,69.2,48.7,30.26,NW,315,0.0,-999.0,48,0.00,,,0.00,Wunderground v.1.15,2013-04-27 16:50:00,
2013-04-27 09:55:00,69.6,50.1,30.26,WNW,293,0.0,-999.0,50,0.00,,,0.00,Wunderground v.1.15,2013-04-27 16:55:00,
2013-04-27 10:00:00,69.6,50.1,30.26,WNW,293,0.0,-999.0,50,0.00,,,0.00,Wunderground v.1.15,2013-04-27 17:00:00,
2013-04-27 10:05:00,70.3,50.2,30.26,NNE,23,0.0,-999.0,49,0.00,,,0.00,Wunderground v.1.15,2013-04-27 17:05:00,
2013-04-27 10:10:00,70.3,50.2,30.26,NNE,23,0.0,-999.0,49,0.00,,,0.00,Wunderground v.1.15,2013-04-27 17:10:00,
2013-04-27 10:15:00,71.4,50.1,30.26,West,270,0.0,-999.0,47,0.00,,,0.00,Wunderground v.1.15,2013-04-27 17:15:00,
2013-04-27 10:20:00,71.4,50.1,30.26,West,270,0.0,-999.0,47,0.00,,,0.00,Wunderground v.1.15,2013-04-27 17:20:00,
2013-04-27 10:25:00,71.7,49.8,30.26,West,270,0.0,-999.0,46,0.00,,,0.00,Wunderground v.1.15,2013-04-27 17:25:00,
2013-04-27 10:30:00,71.7,49.8,30.26,West,270,0.0,-999.0,46,0.00,,,0.00,Wunderground v.1.15,2013-04-27 17:30:00,
2013-04-27 10:35:00,72.1,50.8,30.26,West,270,0.0,-999.0,47,0.00,,,0.00,Wunderground v.1.15,2013-04-27 17:35:00,
2013-04-27 10:40:00,72.1,50.8,30.26,West,270,0.0,-999.0,47,0.00,,,0.00,Wunderground v.1.15,2013-04-27 17:40:00,
2013-04-27 10:45:00,72.9,50.9,30.26,West,270,0.0,-999.0,46,0.00,,,0.00,Wunderground v.1.15,2013-04-27 17:45:00,
2013-04-27 10:50:00,72.9,50.9,30.26,West,270,0.0,-999.0,46,0.00,,,0.00,Wunderground v.1.15,2013-04-27 17:50:00,
2013-04-27 10:55:00,73.1,50.5,30.26,NW,315,1.0,-999.0,45,0.00,,,0.00,Wunderground v.1.15,2013-04-27 17:55:00,
2013-04-27 11:00:00,73.1,50.5,30.26,NW,315,1.0,-999.0,45,0.00,,,0.00,Wunderground v.1.15,2013-04-27 18:00:00,
2013-04-27 11:05:00,73.1,49.9,30.26,SSE,158,1.0,-999.0,44,0.00,,,0.00,Wunderground v.1.15,2013-04-27 18:05:00,
2013-04-27 11:10:00,73.1,49.9,30.26,SSE,158,1.0,-999.0,44,0.00,,,0.00,Wunderground v.1.15,2013-04-27 18:10:00,
2013-04-27 11:15:00,74.0,50.1,30.26,WNW,293,1.0,-999.0,43,0.00,,,0.00,Wunderground v.1.15,2013-04-27 18:15:00,
2013-04-27 11:20:00,74.0,50.1,30.26,WNW,293,1.0,-999.0,43,0.00,,,0.00,Wunderground v.1.15,2013-04-27 18:20:00,
2013-04-27 11:25:00,75.1,51.1,30.26,NW,315,1.0,-999.0,43,0.00,,,0.00,Wunderground v.1.15,2013-04-27 18:25:00,
2013-04-27 11:30:00,75.1,51.1,30.26,NW,315,1.0,-999.0,43,0.00,,,0.00,Wunderground v.1.15,2013-04-27 18:30:00,
2013-04-27 11:35:00,75.2,51.8,30.26,NW,315,1.0,-999.0,44,0.00,,,0.00,Wunderground v.1.15,2013-04-27 18:35:00,
2013-04-27 11:40:00,75.2,51.8,30.26,NW,315,1.0,-999.0,44,0.00,,,0.00,Wunderground v.1.15,2013-04-27 18:40:00,
2013-04-27 11:45:00,75.3,50.6,30.25,NNE,23,1.0,-999.0,42,0.00,,,0.00,Wunderground v.1.15,2013-04-27 18:45:00,
2013-04-27 11:50:00,75.3,50.6,30.25,NNE,23,1.0,-999.0,42,0.00,,,0.00,Wunderground v.1.15,2013-04-27 18:50:00,
2013-04-27 11:55:00,75.6,50.2,30.25,WNW,293,1.0,-999.0,41,0.00,,,0.00,Wunderground v.1.15,2013-04-27 18:55:00,
2013-04-27 12:00:00,75.6,50.2,30.25,WNW,293,1.0,-999.0,41,0.00,,,0.00,Wunderground v.1.15,2013-04-27 19:00:00,
2013-04-27 12:05:00,75.7,51.0,30.25,WNW,293,1.0,-999.0,42,0.00,,,0.00,Wunderground v.1.15,2013-04-27 19:05:00,
2013-04-27 12:10:00,75.7,51.0,30.25,WNW,293,1.0,-999.0,42,0.00,,,0.00,Wunderground v.1.15,2013-04-27 19:10:00,
2013-04-27 12:15:00,76.1,53.2,30.24,ESE,113,1.0,-999.0,45,0.00,,,0.00,Wunderground v.1.15,2013-04-27 19:15:00,
2013-04-27 12:20:00,76.1,53.2,30.24,ESE,113,1.0,-999.0,45,0.00,,,0.00,Wunderground v.1.15,2013-04-27 19:20:00,
2013-04-27 12:25:00,77.0,52.1,30.24,ENE,68,1.0,-999.0,42,0.00,,,0.00,Wunderground v.1.15,2013-04-27 19:25:00,
2013-04-27 12:30:00,77.0,52.1,30.24,ENE,68,1.0,-999.0,42,0.00,,,0.00,Wunderground v.1.15,2013-04-27 19:30:00,
2013-04-27 12:35:00,78.0,51.7,30.24,NW,315,1.0,-999.0,40,0.00,,,0.00,Wunderground v.1.15,2013-04-27 19:35:00,
2013-04-27 12:40:00,78.0,51.7,30.24,NW,315,1.0,-999.0,40,0.00,,,0.00,Wunderground v.1.15,2013-04-27 19:40:00,
2013-04-27 12:45:00,77.1,51.6,30.23,SE,135,1.0,-999.0,41,0.00,,,0.00,Wunderground v.1.15,2013-04-27 19:45:00,
2013-04-27 12:50:00,77.1,51.6,30.23,SE,135,1.0,-999.0,41,0.00,,,0.00,Wunderground v.1.15,2013-04-27 19:50:00,
2013-04-27 12:55:00,77.6,53.3,30.23,West,270,1.0,-999.0,43,0.00,,,0.00,Wunderground v.1.15,2013-04-27 19:55:00,
2013-04-27 13:00:00,77.6,53.3,30.23,West,270,1.0,-999.0,43,0.00,,,0.00,Wunderground v.1.15,2013-04-27 20:00:00,
2013-04-27 13:05:00,78.6,51.6,30.23,NNW,338,1.0,-999.0,39,0.00,,,0.00,Wunderground v.1.15,2013-04-27 20:05:00,
2013-04-27 13:10:00,78.6,51.6,30.23,NNW,338,1.0,-999.0,39,0.00,,,0.00,Wunderground v.1.15,2013-04-27 20:10:00,
2013-04-27 13:15:00,79.4,52.3,30.22,NE,45,1.0,-999.0,39,0.00,,,0.00,Wunderground v.1.15,2013-04-27 20:15:00,
2013-04-27 13:20:00,79.4,52.3,30.22,NE,45,1.0,-999.0,39,0.00,,,0.00,Wunderground v.1.15,2013-04-27 20:20:00,
2013-04-27 13:25:00,79.5,52.4,30.22,NE,45,1.0,-999.0,39,0.00,,,0.00,Wunderground v.1.15,2013-04-27 20:25:00,
2013-04-27 13:30:00,79.5,52.4,30.22,NE,45,1.0,-999.0,39,0.00,,,0.00,Wunderground v.1.15,2013-04-27 20:30:00,
2013-04-27 13:35:00,79.1,54.7,30.22,NE,45,1.0,-999.0,43,0.00,,,0.00,Wunderground v.1.15,2013-04-27 20:35:00,
2013-04-27 13:40:00,79.1,54.7,30.22,NE,45,1.0,-999.0,43,0.00,,,0.00,Wunderground v.1.15,2013-04-27 20:40:00,
2013-04-27 13:45:00,79.0,54.6,30.22,ESE,113,1.0,-999.0,43,0.00,,,0.00,Wunderground v.1.15,2013-04-27 20:45:00,
2013-04-27 13:50:00,79.0,54.6,30.22,ESE,113,1.0,-999.0,43,0.00,,,0.00,Wunderground v.1.15,2013-04-27 20:50:00,
2013-04-27 13:55:00,79.8,54.0,30.21,NNE,23,1.0,-999.0,41,0.00,,,0.00,Wunderground v.1.15,2013-04-27 20:55:00,
2013-04-27 14:00:00,79.8,54.0,30.21,NNE,23,1.0,-999.0,41,0.00,,,0.00,Wunderground v.1.15,2013-04-27 21:00:00,
2013-04-27 14:05:00,79.8,54.0,30.21,ENE,68,1.0,-999.0,41,0.00,,,0.00,Wunderground v.1.15,2013-04-27 21:05:00,
2013-04-27 14:10:00,79.8,54.0,30.21,ENE,68,1.0,-999.0,41,0.00,,,0.00,Wunderground v.1.15,2013-04-27 21:10:00,
2013-04-27 14:15:00,78.4,52.7,30.21,SE,135,1.0,-999.0,41,0.00,,,0.00,Wunderground v.1.15,2013-04-27 21:15:00,
2013-04-27 14:20:00,78.4,52.7,30.21,SE,135,1.0,-999.0,41,0.00,,,0.00,Wunderground v.1.15,2013-04-27 21:20:00,
2013-04-27 14:25:00,79.1,52.7,30.20,WNW,293,1.0,-999.0,40,0.00,,,0.00,Wunderground v.1.15,2013-04-27 21:25:00,
2013-04-27 14:30:00,79.1,52.7,30.20,WNW,293,1.0,-999.0,40,0.00,,,0.00,Wunderground v.1.15,2013-04-27 21:30:00,
2013-04-27 14:35:00,80.2,53.0,30.20,ENE,68,1.0,-999.0,39,0.00,,,0.00,Wunderground v.1.15,2013-04-27 21:35:00,
2013-04-27 14:40:00,80.2,53.0,30.20,ENE,68,1.0,-999.0,39,0.00,,,0.00,Wunderground v.1.15,2013-04-27 21:40:00,
2013-04-27 14:45:00,79.9,54.1,30.20,WNW,293,1.0,-999.0,41,0.00,,,0.00,Wunderground v.1.15,2013-04-27 21:45:00,
2013-04-27 14:50:00,79.9,54.1,30.20,WNW,293,1.0,-999.0,41,0.00,,,0.00,Wunderground v.1.15,2013-04-27 21:50:00,
2013-04-27 14:55:00,80.2,54.4,30.19,East,90,1.0,-999.0,41,0.00,,,0.00,Wunderground v.1.15,2013-04-27 21:55:00,
2013-04-27 15:00:00,80.2,54.4,30.19,East,90,1.0,-999.0,41,0.00,,,0.00,Wunderground v.1.15,2013-04-27 22:00:00,
2013-04-27 15:05:00,80.6,52.6,30.19,NNE,23,1.0,-999.0,38,0.00,,,0.00,Wunderground v.1.15,2013-04-27 22:05:00,
2013-04-27 15:10:00,80.6,52.6,30.19,NNE,23,1.0,-999.0,38,0.00,,,0.00,Wunderground v.1.15,2013-04-27 22:10:00,
2013-04-27 15:15:00,80.6,52.6,30.19,ENE,68,1.0,-999.0,38,0.00,,,0.00,Wunderground v.1.15,2013-04-27 22:15:00,
2013-04-27 15:20:00,80.6,52.6,30.19,ENE,68,1.0,-999.0,38,0.00,,,0.00,Wunderground v.1.15,2013-04-27 22:20:00,
2013-04-27 15:25:00,80.4,52.5,30.18,West,270,0.0,-999.0,38,0.00,,,0.00,Wunderground v.1.15,2013-04-27 22:25:00,
2013-04-27 15:30:00,80.4,52.5,30.18,West,270,0.0,-999.0,38,0.00,,,0.00,Wunderground v.1.15,2013-04-27 22:30:00,
2013-04-27 15:35:00,80.7,51.3,30.18,ENE,68,1.0,-999.0,36,0.00,,,0.00,Wunderground v.1.15,2013-04-27 22:35:00,
2013-04-27 15:40:00,80.7,51.3,30.18,ENE,68,1.0,-999.0,36,0.00,,,0.00,Wunderground v.1.15,2013-04-27 22:40:00,
2013-04-27 15:45:00,80.8,52.1,30.18,NE,45,0.0,-999.0,37,0.00,,,0.00,Wunderground v.1.15,2013-04-27 22:45:00,
2013-04-27 15:50:00,80.8,52.1,30.18,NE,45,0.0,-999.0,37,0.00,,,0.00,Wunderground v.1.15,2013-04-27 22:50:00,
2013-04-27 15:55:00,80.8,50.6,30.18,NE,45,1.0,-999.0,35,0.00,,,0.00,Wunderground v.1.15,2013-04-27 22:55:00,
2013-04-27 16:00:00,80.8,50.6,30.18,NE,45,1.0,-999.0,35,0.00,,,0.00,Wunderground v.1.15,2013-04-27 23:00:00,
2013-04-27 16:05:00,80.2,50.8,30.17,NE,45,0.0,-999.0,36,0.00,,,0.00,Wunderground v.1.15,2013-04-27 23:05:00,
2013-04-27 16:10:00,80.2,50.8,30.17,NE,45,0.0,-999.0,36,0.00,,,0.00,Wunderground v.1.15,2013-04-27 23:10:00,
2013-04-27 16:15:00,80.5,48.7,30.17,NE,45,0.0,-999.0,33,0.00,,,0.00,Wunderground v.1.15,2013-04-27 23:15:00,
2013-04-27 16:20:00,80.5,48.7,30.17,NE,45,0.0,-999.0,33,0.00,,,0.00,Wunderground v.1.15,2013-04-27 23:20:00,
2013-04-27 16:25:00,80.1,50.7,30.17,East,90,1.0,-999.0,36,0.00,,,0.00,Wunderground v.1.15,2013-04-27 23:25:00,
2013-04-27 16:30:00,80.1,50.7,30.17,East,90,1.0,-999.0,36,0.00,,,0.00,Wunderground v.1.15,2013-04-27 23:30:00,
2013-04-27 16:35:00,79.6,49.5,30.17,ESE,113,1.0,-999.0,35,0.00,,,0.00,Wunderground v.1.15,2013-04-27 23:35:00,
2013-04-27 16:40:00,79.6,49.5,30.17,ESE,113,1.0,-999.0,35,0.00,,,0.00,Wunderground v.1.15,2013-04-27 23:40:00,
2013-04-27 16:45:00,79.6,50.3,30.16,NE,45,0.0,-999.0,36,0.00,,,0.00,Wunderground v.1.15,2013-04-27 23:45:00,
2013-04-27 16:50:00,79.6,50.3,30.16,NE,45,0.0,-999.0,36,0.00,,,0.00,Wunderground v.1.15,2013-04-27 23:50:00,
2013-04-27 16:55:00,79.6,48.0,30.16,NE,45,0.0,-999.0,33,0.00,,,0.00,Wunderground v.1.15,2013-04-27 23:55:00,
2013-04-27 17:00:00,79.6,48.0,30.16,NE,45,0.0,-999.0,33,0.00,,,0.00,Wunderground v.1.15,2013-04-28 00:00:00,
2013-04-27 17:05:00,78.7,48.7,30.16,NE,45,0.0,-999.0,35,0.00,,,0.00,Wunderground v.1.15,2013-04-28 00:05:00,
2013-04-27 17:10:00,78.7,48.7,30.16,NE,45,0.0,-999.0,35,0.00,,,0.00,Wunderground v.1.15,2013-04-28 00:10:00,
2013-04-27 17:15:00,77.5,48.4,30.16,East,90,1.0,-999.0,36,0.00,,,0.00,Wunderground v.1.15,2013-04-28 00:15:00,
2013-04-27 17:20:00,77.5,48.4,30.16,East,90,1.0,-999.0,36,0.00,,,0.00,Wunderground v.1.15,2013-04-28 00:20:00,
2013-04-27 17:25:00,77.1,47.3,30.16,ENE,68,0.0,-999.0,35,0.00,,,0.00,Wunderground v.1.15,2013-04-28 00:25:00,
2013-04-27 17:30:00,77.1,47.3,30.16,ENE,68,0.0,-999.0,35,0.00,,,0.00,Wunderground v.1.15,2013-04-28 00:30:00,
2013-04-27 17:35:00,76.6,48.4,30.16,ESE,113,1.0,-999.0,37,0.00,,,0.00,Wunderground v.1.15,2013-04-28 00:35:00,
2013-04-27 17:40:00,76.6,48.4,30.16,ESE,113,1.0,-999.0,37,0.00,,,0.00,Wunderground v.1.15,2013-04-28 00:40:00,
2013-04-27 17:45:00,76.3,48.1,30.16,East,90,0.0,-999.0,37,0.00,,,0.00,Wunderground v.1.15,2013-04-28 00:45:00,
2013-04-27 17:50:00,76.3,48.1,30.16,East,90,0.0,-999.0,37,0.00,,,0.00,Wunderground v.1.15,2013-04-28 00:50:00,
2013-04-27 17:55:00,76.0,49.2,30.15,East,90,0.0,-999.0,39,0.00,,,0.00,Wunderground v.1.15,2013-04-28 00:55:00,
2013-04-27 18:00:00,76.0,49.2,30.15,East,90,0.0,-999.0,39,0.00,,,0.00,Wunderground v.1.15,2013-04-28 01:00:00,
2013-04-27 18:05:00,75.3,49.3,30.15,East,90,0.0,-999.0,40,0.00,,,0.00,Wunderground v.1.15,2013-04-28 01:05:00,
2013-04-27 18:10:00,75.3,49.3,30.15,East,90,0.0,-999.0,40,0.00,,,0.00,Wunderground v.1.15,2013-04-28 01:10:00,
2013-04-27 18:15:00,74.9,48.9,30.15,East,90,0.0,-999.0,40,0.00,,,0.00,Wunderground v.1.15,2013-04-28 01:15:00,
2013-04-27 18:20:00,74.9,48.9,30.15,East,90,0.0,-999.0,40,0.00,,,0.00,Wunderground v.1.15,2013-04-28 01:20:00,
2013-04-27 18:25:00,74.4,47.8,30.15,East,90,0.0,-999.0,39,0.00,,,0.00,Wunderground v.1.15,2013-04-28 01:25:00,
2013-04-27 18:30:00,74.4,47.8,30.15,East,90,0.0,-999.0,39,0.00,,,0.00,Wunderground v.1.15,2013-04-28 01:30:00,
2013-04-27 18:35:00,74.1,48.9,30.15,ESE,113,0.0,-999.0,41,0.00,,,0.00,Wunderground v.1.15,2013-04-28 01:35:00,
2013-04-27 18:40:00,74.1,48.9,30.15,ESE,113,0.0,-999.0,41,0.00,,,0.00,Wunderground v.1.15,2013-04-28 01:40:00,
2013-04-27 18:45:00,74.0,49.4,30.15,N/A,-737280,0.0,-999.0,42,0.00,,,0.00,Wunderground v.1.15,2013-04-28 01:45:00,
2013-04-27 18:50:00,74.0,49.4,30.15,N/A,-737280,0.0,-999.0,42,0.00,,,0.00,Wunderground v.1.15,2013-04-28 01:50:00,
2013-04-27 18:55:00,73.6,49.1,30.14,ESE,113,0.0,-999.0,42,0.00,,,0.00,Wunderground v.1.15,2013-04-28 01:55:00,
2013-04-27 19:00:00,73.6,49.1,30.14,ESE,113,0.0,-999.0,42,0.00,,,0.00,Wunderground v.1.15,2013-04-28 02:00:00,
2013-04-27 19:05:00,73.2,49.4,30.14,ESE,113,0.0,-999.0,43,0.00,,,0.00,Wunderground v.1.15,2013-04-28 02:05:00,
2013-04-27 19:10:00,73.2,49.4,30.14,ESE,113,0.0,-999.0,43,0.00,,,0.00,Wunderground v.1.15,2013-04-28 02:10:00,
2013-04-27 19:15:00,72.6,50.0,30.14,N/A,-737280,0.0,-999.0,45,0.00,,,0.00,Wunderground v.1.15,2013-04-28 02:15:00,
2013-04-27 19:20:00,72.6,50.0,30.14,N/A,-737280,0.0,-999.0,45,0.00,,,0.00,Wunderground v.1.15,2013-04-28 02:20:00,
2013-04-27 19:25:00,71.9,49.4,30.14,N/A,-737280,0.0,-999.0,45,0.00,,,0.00,Wunderground v.1.15,2013-04-28 02:25:00,
2013-04-27 19:30:00,71.9,49.4,30.14,N/A,-737280,0.0,-999.0,45,0.00,,,0.00,Wunderground v.1.15,2013-04-28 02:30:00,
2013-04-27 19:40:00,71.3,49.4,30.13,ESE,119,0.0,1.0,46,0.00,,,0.00,Wunderground v.1.15,2013-04-28 02:40:00,
2013-04-27 19:49:00,70.7,49.5,30.13,ESE,119,0.0,0.0,47,0.00,,,0.00,Wunderground v.1.15,2013-04-28 02:49:00,
2013-04-27 20:00:00,70.2,49.0,30.13,ESE,119,0.0,0.0,47,0.00,,,0.00,Wunderground v.1.15,2013-04-28 03:00:00,
2013-04-27 20:10:00,69.9,48.7,30.13,ESE,119,0.0,0.0,47,0.00,,,0.00,Wunderground v.1.15,2013-04-28 03:10:00,
2013-04-27 20:15:00,69.8,48.7,30.13,ESE,119,0.0,0.0,47,0.00,,,0.00,Wunderground v.1.15,2013-04-28 03:15:00,
2013-04-27 20:20:00,69.5,48.9,30.13,ESE,119,0.0,0.0,48,0.00,,,0.00,Wunderground v.1.15,2013-04-28 03:20:00,
2013-04-27 20:30:00,69.1,48.6,30.13,ESE,119,0.0,0.0,48,0.00,,,0.00,Wunderground v.1.15,2013-04-28 03:30:00,
2013-04-27 20:40:00,68.9,48.9,30.13,ESE,119,0.0,0.0,49,0.00,,,0.00,Wunderground v.1.15,2013-04-28 03:40:00,
2013-04-27 20:45:00,68.8,49.4,30.13,ESE,119,0.0,0.0,50,0.00,,,0.00,Wunderground v.1.15,2013-04-28 03:45:00,
2013-04-27 20:50:00,68.5,49.7,30.13,ESE,119,0.0,0.0,51,0.00,,,0.00,Wunderground v.1.15,2013-04-28 03:50:00,
2013-04-27 21:00:00,68.4,49.6,30.13,ESE,119,0.0,0.0,51,0.00,,,0.00,Wunderground v.1.15,2013-04-28 04:00:00,
2013-04-27 21:05:00,68.2,49.9,30.13,ESE,119,0.0,0.0,52,0.00,,,0.00,Wunderground v.1.15,2013-04-28 04:05:00,
2013-04-27 21:09:00,67.5,49.3,30.13,ESE,119,0.0,0.0,52,0.00,,,0.00,Wunderground v.1.15,2013-04-28 04:09:00,
2013-04-27 21:15:00,66.9,49.2,30.13,ESE,119,0.0,0.0,53,0.00,,,0.00,Wunderground v.1.15,2013-04-28 04:15:00,
2013-04-27 21:20:00,66.2,49.1,30.13,ESE,119,0.0,0.0,54,0.00,,,0.00,Wunderground v.1.15,2013-04-28 04:20:00,
2013-04-27 21:25:00,65.8,49.2,30.13,ESE,119,0.0,0.0,55,0.00,,,0.00,Wunderground v.1.15,2013-04-28 04:25:00,
2013-04-27 21:30:00,65.6,49.0,30.13,ESE,119,0.0,0.0,55,0.00,,,0.00,Wunderground v.1.15,2013-04-28 04:30:00,
2013-04-27 21:35:00,65.3,49.2,30.14,ESE,119,0.0,0.0,56,0.00,,,0.00,Wunderground v.1.15,2013-04-28 04:35:00,
2013-04-27 21:40:00,64.8,49.2,30.13,ESE,119,0.0,1.0,57,0.00,,,0.00,Wunderground v.1.15,2013-04-28 04:40:00,
2013-04-27 21:45:00,64.1,48.5,30.13,ESE,119,1.0,1.0,57,0.00,,,0.00,Wunderground v.1.15,2013-04-28 04:45:00,
2013-04-27 21:49:00,63.8,47.8,30.14,ESE,119,1.0,1.0,56,0.00,,,0.00,Wunderground v.1.15,2013-04-28 04:49:00,
2013-04-27 21:54:00,63.6,47.6,30.13,ESE,119,1.0,1.0,56,0.00,,,0.00,Wunderground v.1.15,2013-04-28 04:54:00,
2013-04-27 22:00:00,63.3,47.3,30.14,ESE,119,0.0,0.0,56,0.00,,,0.00,Wunderground v.1.15,2013-04-28 05:00:00,
2013-04-27 22:10:00,62.9,46.5,30.13,ESE,119,1.0,1.0,55,0.00,,,0.00,Wunderground v.1.15,2013-04-28 05:10:00,
2013-04-27 22:15:00,62.6,45.7,30.13,ESE,119,1.0,1.0,54,0.00,,,0.00,Wunderground v.1.15,2013-04-28 05:15:00,
2013-04-27 22:20:00,62.4,45.5,30.13,ESE,119,0.0,0.0,54,0.00,,,0.00,Wunderground v.1.15,2013-04-28 05:20:00,
2013-04-27 22:30:00,62.2,45.3,30.13,ESE,119,1.0,1.0,54,0.00,,,0.00,Wunderground v.1.15,2013-04-28 05:30:00,
2013-04-27 22:35:00,62.2,45.3,30.13,ESE,119,0.0,1.0,54,0.00,,,0.00,Wunderground v.1.15,2013-04-28 05:35:00,
2013-04-27 22:40:00,62.4,45.0,30.13,ESE,119,0.0,0.0,53,0.00,,,0.00,Wunderground v.1.15,2013-04-28 05:40:00,
2013-04-27 22:45:00,62.7,44.3,30.13,ESE,119,0.0,1.0,51,0.00,,,0.00,Wunderground v.1.15,2013-04-28 05:45:00,
2013-04-27 22:54:00,61.6,45.7,30.13,WNW,303,1.0,3.0,56,0.00,,,0.00,Wunderground v.1.15,2013-04-28 05:54:00,
2013-04-27 23:00:00,59.2,44.9,30.13,WNW,303,2.0,2.0,59,0.00,,,0.00,Wunderground v.1.15,2013-04-28 06:00:00,
2013-04-27 23:09:00,59.4,45.1,30.13,NW,317,1.0,2.0,59,0.00,,,0.00,Wunderground v.1.15,2013-04-28 06:09:00,
2013-04-27 23:14:00,59.4,44.2,30.13,NW,304,1.0,2.0,57,0.00,,,0.00,Wunderground v.1.15,2013-04-28 06:14:00,
2013-04-27 23:24:00,59.9,43.2,30.13,NW,324,1.0,1.0,54,0.00,,,0.00,Wunderground v.1.15,2013-04-28 06:24:00,
2013-04-27 23:30:00,60.2,42.5,30.13,NW,324,1.0,1.0,52,0.00,,,0.00,Wunderground v.1.15,2013-04-28 06:30:00,
2013-04-27 23:35:00,60.3,42.6,30.12,NNW,343,1.0,2.0,52,0.00,,,0.00,Wunderground v.1.15,2013-04-28 06:35:00,
2013-04-27 23:40:00,60.4,42.2,30.12,NNW,338,1.0,-999.0,51,0.00,,,0.00,Wunderground v.1.15,2013-04-28 06:40:00,
2013-04-27 23:45:00,60.6,42.9,30.12,NNW,343,1.0,1.0,52,0.00,,,0.00,Wunderground v.1.15,2013-04-28 06:45:00,
2013-04-27 23:50:00,60.5,42.8,30.12,NNW,338,0.0,-999.0,52,0.00,,,0.00,Wunderground v.1.15,2013-04-28 06:50:00,
2013-04-27 23:55:00,60.4,42.7,30.12,NNW,338,1.0,-999.0,52,0.00,,,0.00,Wunderground v.1.15,2013-04-28 06:55:00,